Time;durP1;ratioP1;P1;durP2;ratioP2;P2;SDS_P1;SDS_P2;PMS_P1;PMS_P2;Temp;Humidity;BMP_temperature;BMP_pressure;BME280_temperature;BME280_humidity;BME280_pressure;Samples;Min_cycle;Max_cycle;Signal;HPM_P1;HPM_P2
2024/03/21 00:00:46;;;;;;;8.93;5.25;;;;;;;10.03;100.00;99455.19;5085330;28;20033;-96
2024/03/21 00:03:12;;;;;;;8.00;4.80;;;;;;;10.13;100.00;99461.28;5080244;28;20021;-94
2024/03/21 00:05:38;;;;;;;12.00;5.97;;;;;;;9.60;100.00;99370.78;5085976;28;20088;-95
2024/03/21 00:08:06;;;;;;;12.68;5.85;;;;;;;9.78;100.00;99401.53;5090563;28;20095;-95
2024/03/21 00:10:34;;;;;;;10.27;5.45;;;;;;;10.13;100.00;99453.28;5083898;28;20064;-95
2024/03/21 00:13:00;;;;;;;9.95;5.15;;;;;;;9.76;100.00;99399.78;5093714;28;20098;-96
2024/03/21 00:15:27;;;;;;;11.68;5.47;;;;;;;9.19;100.00;99313.78;5062178;28;20036;-96
2024/03/21 00:17:53;;;;;;;9.13;4.47;;;;;;;10.02;100.00;99458.75;5066896;28;20041;-95
2024/03/21 00:20:19;;;;;;;8.88;4.78;;;;;;;10.06;100.00;99455.16;5063766;28;20064;-96
2024/03/21 00:22:46;;;;;;;9.07;5.35;;;;;;;9.41;100.00;99342.72;5067178;28;20089;-95
2024/03/21 00:25:13;;;;;;;10.15;5.22;;;;;;;10.13;100.00;99455.94;5065451;28;20044;-96
2024/03/21 00:27:41;;;;;;;11.85;5.57;;;;;;;10.16;100.00;99461.22;5066743;28;20055;-96
2024/03/21 00:30:09;;;;;;;11.32;5.95;;;;;;;9.88;100.00;99413.75;5061573;28;20518;-96
2024/03/21 00:32:35;;;;;;;10.90;5.72;;;;;;;9.24;100.00;99305.81;5062039;28;20131;-96
2024/03/21 00:35:02;;;;;;;11.00;5.07;;;;;;;9.38;100.00;99330.34;5066386;28;20048;-96
2024/03/21 00:37:28;;;;;;;12.27;5.25;;;;;;;10.06;100.00;99462.22;5062598;28;20048;-96
2024/03/21 00:39:54;;;;;;;9.73;5.05;;;;;;;9.20;100.00;99320.88;5065855;28;20041;-96
2024/03/21 00:42:21;;;;;;;14.50;6.18;;;;;;;9.56;100.00;99389.41;5063189;28;20037;-96
2024/03/21 00:44:49;;;;;;;11.30;5.68;;;;;;;9.98;100.00;99454.38;5067049;28;20090;-96
2024/03/21 00:47:15;;;;;;;13.15;4.95;;;;;;;10.01;100.00;99446.34;5063339;28;20086;-96
2024/03/21 00:49:41;;;;;;;11.50;5.20;;;;;;;9.83;100.00;99417.41;5064857;28;20053;-96
2024/03/21 00:52:07;;;;;;;9.20;4.70;;;;;;;10.07;100.00;99446.28;5065446;28;20044;-96
2024/03/21 00:54:33;;;;;;;11.32;5.28;;;;;;;10.11;100.00;99444.47;5096377;28;20071;-96
2024/03/21 00:56:59;;;;;;;9.32;4.63;;;;;;;10.08;100.00;99448.06;5060733;28;20045;-95
2024/03/21 00:59:25;;;;;;;9.38;4.50;;;;;;;9.60;100.00;99373.44;5081428;28;20052;-94
2024/03/21 01:01:53;;;;;;;14.18;5.38;;;;;;;9.18;100.00;99295.25;5083958;28;20020;-95
2024/03/21 01:04:19;;;;;;;11.77;5.68;;;;;;;9.38;100.00;99321.53;5090753;28;20092;-95
2024/03/21 01:14:24;;;;;;;10.40;5.57;;;;;;;9.91;100.00;99444.75;5084717;28;20411;-95
2024/03/21 01:16:49;;;;;;;9.88;6.05;;;;;;;9.90;100.00;99436.78;5167217;27;20046;-94
2024/03/21 01:19:15;;;;;;;11.57;5.90;;;;;;;9.45;100.00;99368.31;5160978;27;20033;-94
2024/03/21 01:21:41;;;;;;;13.05;7.35;;;;;;;9.89;100.00;99430.59;5162798;27;20041;-96
2024/03/21 01:24:07;;;;;;;10.18;6.50;;;;;;;9.23;100.00;99343.84;5128176;27;20052;-95
2024/03/21 01:26:34;;;;;;;12.23;7.70;;;;;;;8.77;100.00;99284.25;5155037;27;20049;-96
2024/03/21 01:29:00;;;;;;;11.85;7.57;;;;;;;9.57;100.00;99439.00;5152610;27;20045;-95
2024/03/21 01:31:27;;;;;;;12.15;6.70;;;;;;;9.30;100.00;99389.75;5142898;27;20068;-96
2024/03/21 01:33:54;;;;;;;13.68;7.57;;;;;;;9.44;100.00;99436.47;5139111;27;20131;-96
2024/03/21 01:36:20;;;;;;;16.98;7.80;;;;;;;8.62;100.00;99287.94;5138951;27;20135;-96
2024/03/21 01:38:46;;;;;;;14.48;7.82;;;;;;;9.10;100.00;99352.84;5139762;27;20044;-96
2024/03/21 01:41:12;;;;;;;11.38;6.15;;;;;;;9.16;100.00;99356.31;5134626;27;20245;-96
2024/03/21 01:43:39;;;;;;;13.73;7.88;;;;;;;9.43;100.00;99397.56;5136385;27;20061;-96
2024/03/21 01:46:23;;;;;;;12.50;7.03;;;;;;;9.64;100.00;99427.38;5138025;27;20072;-96
2024/03/21 01:48:51;;;;;;;12.40;7.30;;;;;;;9.66;100.00;99445.03;5134783;27;20041;-96
2024/03/21 01:51:20;;;;;;;11.48;7.45;;;;;;;9.40;100.00;99380.78;5144876;27;20060;-96
2024/03/21 01:53:47;;;;;;;13.45;7.50;;;;;;;9.21;100.00;99354.47;5151391;27;20044;-94
2024/03/21 01:56:14;;;;;;;12.07;6.53;;;;;;;8.84;100.00;99293.00;5163947;27;20021;-95
2024/03/21 01:58:40;;;;;;;16.20;8.13;;;;;;;9.09;100.00;99333.41;5156008;27;20051;-95
2024/03/21 02:01:27;;;;;;;13.15;7.72;;;;;;;9.54;100.00;99423.97;5164114;27;20056;-93
2024/03/21 02:03:56;;;;;;;12.10;7.10;;;;;;;9.38;100.00;99423.25;5145135;27;20032;-94
2024/03/21 02:06:23;;;;;;;15.07;7.40;;;;;;;9.45;100.00;99419.66;5152003;27;20036;-95
2024/03/21 02:08:51;;;;;;;14.30;7.43;;;;;;;8.99;100.00;99345.88;5171406;27;20024;-96
2024/03/21 02:11:17;;;;;;;11.25;7.28;;;;;;;9.50;100.00;99427.56;5159498;27;20023;-94
2024/03/21 02:13:44;;;;;;;13.95;7.60;;;;;;;9.48;100.00;99428.47;5159166;27;20050;-96
2024/03/21 02:16:11;;;;;;;11.60;7.55;;;;;;;8.52;100.00;99277.47;5158241;27;20029;-95
2024/03/21 02:18:38;;;;;;;12.98;7.75;;;;;;;9.35;100.00;99419.78;5149008;27;20391;-96
2024/03/21 02:22:35;;;;;;;11.70;6.30;;;;;;;9.42;100.00;99432.09;5127348;27;20056;-96
2024/03/21 02:23:54;;;;;;;11.55;7.00;;;;;;;8.62;100.00;99287.06;5124749;27;20045;-96
2024/03/21 02:26:20;;;;;;;11.27;6.45;;;;;;;9.38;100.00;99425.91;5113818;27;20093;-96
2024/03/21 02:28:50;;;;;;;12.30;6.80;;;;;;;9.19;100.00;99429.69;5129737;27;20407;-95
2024/03/21 02:31:18;;;;;;;13.02;7.05;;;;;;;8.95;100.00;99391.03;5122829;27;20073;-96
2024/03/21 02:33:44;;;;;;;12.73;6.63;;;;;;;8.24;100.00;99298.91;5124671;27;20075;-96
2024/03/21 02:36:10;;;;;;;10.90;6.53;;;;;;;9.13;100.00;99420.03;5128783;27;20044;-96
2024/03/21 02:38:36;;;;;;;9.98;5.97;;;;;;;8.86;100.00;99369.91;5121843;27;20462;-96
2024/03/21 02:41:04;;;;;;;10.35;6.38;;;;;;;9.18;100.00;99419.97;5123067;27;20060;-96
2024/03/21 02:43:30;;;;;;;13.40;7.32;;;;;;;8.37;100.00;99295.25;5121457;27;20045;-96
2024/03/21 02:45:56;;;;;;;11.30;6.35;;;;;;;8.82;100.00;99372.56;5121349;27;20064;-96
2024/03/21 02:48:22;;;;;;;11.38;7.15;;;;;;;9.20;100.00;99434.09;5128511;27;20065;-94
2024/03/21 02:50:48;;;;;;;11.80;7.10;;;;;;;8.56;100.00;99329.56;5134368;27;20047;-96
2024/03/21 02:53:14;;;;;;;11.07;5.78;;;;;;;8.61;100.00;99335.72;5127756;27;20049;-96
2024/03/21 02:55:40;;;;;;;12.13;6.20;;;;;;;8.56;100.00;99345.44;5132271;27;20053;-96
2024/03/21 02:58:08;;;;;;;12.77;6.68;;;;;;;9.04;100.00;99430.72;5121931;27;20066;-96
2024/03/21 03:00:34;;;;;;;10.90;6.18;;;;;;;8.36;100.00;99305.88;5128143;27;20102;-96
2024/03/21 03:03:00;;;;;;;14.10;7.03;;;;;;;8.10;100.00;99291.06;5127533;27;20045;-96
2024/03/21 03:05:27;;;;;;;11.50;6.85;;;;;;;8.71;100.00;99390.38;5114094;27;20060;-96
2024/03/21 03:07:53;;;;;;;11.32;6.55;;;;;;;8.77;100.00;99387.66;5115379;27;20043;-96
2024/03/21 03:10:18;;;;;;;13.52;6.78;;;;;;;8.19;100.00;99283.03;5128484;27;20094;-96
2024/03/21 03:12:44;;;;;;;12.10;6.57;;;;;;;8.60;100.00;99344.53;5120230;27;20110;-96
2024/03/21 03:15:12;;;;;;;10.68;6.15;;;;;;;8.57;100.00;99349.88;5128057;27;20035;-96
2024/03/21 03:17:38;;;;;;;10.20;6.43;;;;;;;9.04;100.00;99431.63;5127140;27;20111;-96
2024/03/21 03:20:05;;;;;;;11.32;6.50;;;;;;;9.04;100.00;99428.97;5133034;27;20579;-96
2024/03/21 03:22:31;;;;;;;14.35;7.65;;;;;;;8.96;100.00;99433.47;5126960;27;20544;-96
2024/03/21 03:24:57;;;;;;;10.77;6.35;;;;;;;8.79;100.00;99385.00;5128719;27;20124;-95
2024/03/21 03:27:23;;;;;;;14.55;7.35;;;;;;;8.05;100.00;99302.63;5120607;27;20140;-94
2024/03/21 03:29:49;;;;;;;14.93;7.55;;;;;;;8.93;100.00;99437.91;5127523;27;20038;-96
2024/03/21 03:32:16;;;;;;;12.30;6.03;;;;;;;8.07;100.00;99314.97;5121488;27;20449;-96
2024/03/21 03:37:43;;;;;;;10.32;6.53;;;;;;;8.82;100.00;99444.19;5087857;27;20377;-95
2024/03/21 03:40:10;;;;;;;11.15;5.80;;;;;;;8.84;100.00;99439.75;5090362;28;20055;-96
2024/03/21 03:42:36;;;;;;;10.63;5.80;;;;;;;8.05;100.00;99311.44;5094434;28;20052;-94
2024/03/21 03:45:03;;;;;;;13.02;6.00;;;;;;;8.13;100.00;99306.06;5086705;28;20560;-93
2024/03/21 03:47:29;;;;;;;13.50;5.40;;;;;;;8.92;100.00;99442.34;5086730;28;20063;-96
2024/03/21 03:49:55;;;;;;;9.45;4.78;;;;;;;8.89;100.00;99438.81;5094396;28;20078;-96
2024/03/21 03:52:21;;;;;;;12.73;5.72;;;;;;;8.13;100.00;99319.31;5082843;28;20047;-96
2024/03/21 03:54:49;;;;;;;10.40;5.53;;;;;;;8.86;100.00;99445.03;5079314;28;20139;-96
2024/03/21 03:57:15;;;;;;;10.57;5.32;;;;;;;8.80;100.00;99448.66;5079363;28;20033;-96
2024/03/21 03:59:41;;;;;;;10.70;5.65;;;;;;;7.97;100.00;99322.06;5081427;28;20052;-96
2024/03/21 04:02:07;;;;;;;11.20;5.03;;;;;;;7.83;100.00;99310.72;5085499;28;20108;-96
2024/03/21 04:04:33;;;;;;;10.13;5.03;;;;;;;8.23;100.00;99369.56;5082639;28;20070;-96
2024/03/21 04:06:59;;;;;;;10.07;5.82;;;;;;;8.21;100.00;99381.94;5079603;28;20048;-96
2024/03/21 04:09:25;;;;;;;9.30;4.60;;;;;;;8.00;100.00;99343.25;5080497;28;20037;-96
2024/03/21 04:11:53;;;;;;;12.75;5.55;;;;;;;7.82;100.00;99309.81;5089716;28;20526;-96
2024/03/21 04:14:19;;;;;;;9.15;5.07;;;;;;;8.53;100.00;99452.41;5082948;28;20496;-96
2024/03/21 04:16:45;;;;;;;10.38;5.45;;;;;;;8.51;100.00;99443.56;5079083;28;20032;-96
2024/03/21 04:19:11;;;;;;;12.32;5.35;;;;;;;7.98;100.00;99368.88;5083621;28;20131;-96
2024/03/21 04:21:37;;;;;;;9.73;4.50;;;;;;;7.72;100.00;99315.19;5079393;28;20120;-96
2024/03/21 04:24:04;;;;;;;11.20;6.00;;;;;;;7.57;100.00;99295.91;5082182;28;20041;-96
2024/03/21 04:26:30;;;;;;;10.38;4.78;;;;;;;8.39;100.00;99457.78;5085034;28;20836;-96
2024/03/21 04:28:58;;;;;;;12.43;5.60;;;;;;;8.39;100.00;99463.09;5096675;28;20021;-95
2024/03/21 04:31:24;;;;;;;11.32;5.45;;;;;;;8.41;100.00;99465.72;5110192;22;20049;-94
2024/03/21 04:33:50;;;;;;;10.88;5.03;;;;;;;7.57;100.00;99330.31;5093476;28;20029;-95
2024/03/21 04:36:16;;;;;;;10.93;5.13;;;;;;;8.30;100.00;99471.06;5094235;28;20028;-96
2024/03/21 04:38:43;;;;;;;10.38;4.80;;;;;;;7.49;100.00;99333.88;5094517;28;20059;-96
2024/03/21 04:41:09;;;;;;;10.60;5.88;;;;;;;7.40;100.00;99330.41;5078377;28;20118;-96
2024/03/21 04:43:36;;;;;;;9.40;5.03;;;;;;;7.43;100.00;99331.28;5080063;28;20037;-96
2024/03/21 04:46:04;;;;;;;12.13;5.32;;;;;;;8.19;100.00;99486.16;5073121;28;20037;-95
2024/03/21 04:48:30;;;;;;;10.35;6.47;;;;;;;8.13;100.00;99481.81;5060416;28;20055;-95
2024/03/21 04:50:56;;;;;;;10.20;4.85;;;;;;;8.16;100.00;99495.03;5057062;28;20056;-96
2024/03/21 04:53:24;;;;;;;11.60;5.63;;;;;;;8.11;100.00;99482.66;5056176;28;20048;-96
2024/03/21 04:55:50;;;;;;;11.77;5.10;;;;;;;7.14;100.00;99335.81;5058068;28;20045;-96
2024/03/21 04:58:16;;;;;;;9.20;5.20;;;;;;;7.24;100.00;99354.28;5058291;28;20111;-95
2024/03/21 05:00:42;;;;;;;9.88;4.65;;;;;;;7.31;100.00;99369.25;5058531;28;20041;-96
2024/03/21 05:03:14;;;;;;;9.32;4.75;;;;;;;7.93;100.00;99483.66;5061351;28;20063;-96
2024/03/21 05:05:41;;;;;;;10.88;4.60;;;;;;;7.86;100.00;99480.16;5064382;28;20045;-96
2024/03/21 05:08:07;;;;;;;7.65;4.25;;;;;;;6.89;100.00;99307.69;5061313;28;20037;-96
2024/03/21 05:10:33;;;;;;;10.13;4.57;;;;;;;7.89;100.00;99479.25;5062841;28;20041;-94
2024/03/21 05:12:59;;;;;;;8.20;4.32;;;;;;;7.51;100.00;99424.75;5065598;28;20542;-96
2024/03/21 05:15:25;;;;;;;7.35;4.28;;;;;;;7.86;100.00;99474.88;5068219;28;20037;-96
2024/03/21 05:17:51;;;;;;;11.48;4.53;;;;;;;7.82;100.00;99475.75;5059510;28;20066;-95
2024/03/21 05:20:21;;;;;;;9.00;4.60;;;;;;;7.73;100.00;99478.47;5076740;28;20021;-95
2024/03/21 05:22:47;;;;;;;9.93;4.88;;;;;;;7.63;100.00;99485.53;5079205;28;20021;-94
2024/03/21 05:25:14;;;;;;;11.45;5.63;;;;;;;6.88;100.00;99340.31;5078624;28;20092;-96
2024/03/21 05:27:40;;;;;;;8.25;4.65;;;;;;;7.83;100.00;99485.50;5078619;28;20037;-95
2024/03/21 05:30:07;;;;;;;11.10;5.57;;;;;;;7.63;100.00;99448.47;5078678;28;20020;-93
2024/03/21 05:32:33;;;;;;;13.07;5.32;;;;;;;7.19;100.00;99349.88;5080473;28;20024;-96
2024/03/21 05:34:59;;;;;;;12.88;6.30;;;;;;;7.94;100.00;99481.00;5072306;28;20045;-96
2024/03/21 05:37:26;;;;;;;10.25;5.78;;;;;;;7.98;100.00;99489.81;5058166;28;20044;-96
2024/03/21 05:39:52;;;;;;;13.93;6.22;;;;;;;7.99;100.00;99484.50;5058331;28;20049;-96
2024/03/21 05:42:18;;;;;;;12.52;6.13;;;;;;;7.16;100.00;99346.41;5058968;28;20041;-96
2024/03/21 05:44:44;;;;;;;11.45;6.57;;;;;;;7.75;100.00;99450.22;5059935;28;20051;-96
2024/03/21 05:47:20;;;;;;;11.60;6.22;;;;;;;7.30;100.00;99351.63;5061238;28;20068;-95
2024/03/21 05:49:46;;;;;;;14.45;6.95;;;;;;;7.40;100.00;99363.91;5064677;28;20048;-96
2024/03/21 05:52:12;;;;;;;13.32;6.45;;;;;;;8.30;100.00;99497.56;5066505;28;20553;-95
2024/03/21 05:54:40;;;;;;;12.10;6.53;;;;;;;8.37;100.00;99509.91;5059273;28;20143;-95
2024/03/21 05:57:07;;;;;;;13.32;6.85;;;;;;;7.52;100.00;99353.25;5057868;28;20045;-95
2024/03/21 05:59:33;;;;;;;16.05;7.70;;;;;;;8.19;100.00;99462.31;5056922;28;20041;-94
2024/03/21 06:01:59;;;;;;;15.50;7.47;;;;;;;8.24;100.00;99423.44;5055991;28;20048;-95
2024/03/21 06:04:25;;;;;;;15.38;7.18;;;;;;;7.82;100.00;99338.09;5056938;28;20374;-96
2024/03/21 06:06:51;;;;;;;14.25;7.00;;;;;;;7.81;100.00;99331.03;5059960;28;20143;-95
2024/03/21 06:09:21;;;;;;;12.65;6.30;;;;;;;8.54;100.00;99446.19;5058049;28;20178;-94
2024/03/21 06:11:49;;;;;;;14.13;6.82;;;;;;;8.95;100.00;99502.44;5056380;28;20037;-95
2024/03/21 06:14:15;;;;;;;10.43;6.13;;;;;;;8.20;100.00;99369.59;5060228;28;20132;-94
2024/03/21 06:16:41;;;;;;;14.88;7.03;;;;;;;8.71;100.00;99451.34;5042242;28;20068;-94
2024/03/21 06:19:09;;;;;;;21.67;7.05;;;;;;;8.87;100.00;99464.47;5042182;28;20125;-95
2024/03/21 06:21:35;;;;;;;12.20;6.80;;;;;;;9.21;100.00;99497.75;5036908;28;20041;-96
2024/03/21 06:24:01;;;;;;;13.13;7.72;;;;;;;9.15;100.00;99471.31;5032682;28;20046;-96
2024/03/21 06:26:27;;;;;;;16.60;8.45;;;;;;;9.49;100.00;99510.75;5031633;28;20060;-93
2024/03/21 06:28:54;;;;;;;17.25;8.95;;;;;;;9.69;100.00;99512.31;5036707;28;20046;-95
2024/03/21 06:31:20;;;;;;;16.63;7.47;;;;;;;9.76;100.00;99524.59;5033205;28;20053;-94
2024/03/21 06:33:46;;;;;;;14.07;6.68;;;;;;;9.82;100.00;99519.22;5032163;28;20050;-92
2024/03/21 06:36:12;;;;;;;12.65;7.50;;;;;;;9.87;100.00;99517.41;5033880;28;20041;-90
2024/03/21 06:38:38;;;;;;;15.40;6.53;;;;;;;9.54;100.00;99449.63;5032313;28;20584;-92
2024/03/21 06:41:04;;;;;;;19.30;6.13;;;;;;;10.02;100.00;99513.69;5031979;28;20057;-92
2024/03/21 06:43:30;;;;;;;12.32;7.07;;;;;;;9.82;100.00;99471.41;5042151;28;20060;-93
2024/03/21 06:45:58;;;;;;;13.82;6.50;;;;;;;9.84;100.00;99465.19;5030330;28;20038;-94
2024/03/21 06:48:24;;;;;;;10.77;5.65;;;;;;;9.94;100.00;99465.06;5032513;28;20440;-92
2024/03/21 06:50:50;;;;;;;9.55;5.88;;;;;;;10.03;100.00;99480.88;5033423;28;20046;-93
2024/03/21 06:53:16;;;;;;;12.90;6.55;;;;;;;10.32;100.00;99520.38;5033575;28;20076;-92
2024/03/21 06:55:42;;;;;;;11.45;6.15;;;;;;;10.25;100.00;99492.09;5033019;28;20041;-91
2024/03/21 06:58:09;;;;;;;12.90;6.03;;;;;;;10.07;100.00;99435.66;5033275;28;20555;-92
2024/03/21 07:00:35;;;;;;;13.20;6.13;;;;;;;10.59;100.00;99520.91;5047783;28;20143;-93
2024/03/21 07:03:04;;;;;;;12.80;6.82;;;;;;;10.71;100.00;99519.81;5032802;28;20096;-93
2024/03/21 07:05:30;;;;;;;12.85;6.90;;;;;;;10.85;100.00;99518.69;5035169;28;20041;-94
2024/03/21 07:07:57;;;;;;;15.60;6.32;;;;;;;10.32;100.00;99398.09;5032509;28;20408;-93
2024/03/21 07:10:23;;;;;;;11.52;6.13;;;;;;;10.66;100.00;99442.75;5034124;28;20049;-93
2024/03/21 07:12:49;;;;;;;12.57;5.72;;;;;;;10.92;100.00;99479.56;5032972;28;20370;-93
2024/03/21 07:15:16;;;;;;;14.77;7.15;;;;;;;11.35;100.00;99528.50;5032166;28;20095;-90
2024/03/21 07:17:42;;;;;;;14.65;7.05;;;;;;;11.11;100.00;99466.81;5033018;28;20119;-91
2024/03/21 07:20:11;;;;;;;12.52;6.80;;;;;;;11.50;100.00;99531.75;5032920;28;20057;-93
2024/03/21 07:22:38;;;;;;;15.63;6.72;;;;;;;11.62;100.00;99527.97;5032307;28;20037;-94
2024/03/21 07:25:06;;;;;;;13.27;6.63;;;;;;;11.05;100.00;99411.91;5032659;28;20055;-93
2024/03/21 07:27:32;;;;;;;16.42;7.18;;;;;;;11.72;100.00;99508.25;5041305;28;20045;-94
2024/03/21 07:29:58;;;;;;;15.15;6.32;;;;;;;11.91;100.00;99526.59;5032346;28;20038;-92
2024/03/21 07:32:24;;;;;;;16.70;7.72;;;;;;;12.13;100.00;99543.88;5030932;28;20520;-92
2024/03/21 07:34:50;;;;;;;12.25;6.45;;;;;;;11.82;100.00;99473.41;5033564;28;20060;-93
2024/03/21 07:37:18;;;;;;;12.55;6.25;;;;;;;12.34;100.00;99552.34;5033673;28;20045;-93
2024/03/21 07:39:44;;;;;;;15.75;7.32;;;;;;;12.46;100.00;99551.19;5033765;28;20042;-91
2024/03/21 07:42:10;;;;;;;13.10;6.57;;;;;;;12.55;100.00;99556.31;5035409;28;20059;-91
2024/03/21 07:44:36;;;;;;;14.45;7.53;;;;;;;12.55;100.00;99553.63;5034289;28;20041;-91
2024/03/21 07:47:02;;;;;;;18.17;7.47;;;;;;;12.64;100.00;99556.13;5036075;28;20095;-92
2024/03/21 07:49:28;;;;;;;14.73;7.82;;;;;;;12.59;100.00;99527.78;5040270;28;20041;-90
2024/03/21 07:52:00;;;;;;;15.82;7.82;;;;;;;12.47;100.00;99521.81;5037536;28;20053;-91
2024/03/21 07:54:29;;;;;;;13.25;6.97;;;;;;;12.21;100.00;99476.16;5039665;28;20048;-92
2024/03/21 07:56:57;;;;;;;17.13;7.65;;;;;;;12.74;100.00;99546.09;5034133;28;20054;-92
2024/03/21 07:59:23;;;;;;;17.65;7.40;;;;;;;12.44;100.00;99489.00;5054607;28;20032;-90
2024/03/21 08:01:49;;;;;;;16.40;7.57;;;;;;;12.77;100.00;99555.81;5055448;28;20021;-91
2024/03/21 08:04:15;;;;;;;19.80;8.52;;;;;;;12.54;100.00;99547.44;5057368;28;20157;-93
2024/03/21 08:06:41;;;;;;;14.85;7.45;;;;;;;12.77;100.00;99550.47;5056163;28;20049;-94
2024/03/21 08:09:09;;;;;;;18.27;8.75;;;;;;;12.86;100.00;99556.50;5052061;28;20049;-93
2024/03/21 08:11:36;;;;;;;18.60;8.73;;;;;;;12.91;100.00;99556.38;5035338;28;20869;-92
2024/03/21 08:14:02;;;;;;;18.50;7.88;;;;;;;12.99;100.00;99553.50;5031012;28;20140;-92
2024/03/21 08:16:28;;;;;;;17.45;7.40;;;;;;;13.03;100.00;99533.84;5025866;28;20132;-94
2024/03/21 08:18:54;;;;;;;17.13;8.02;;;;;;;13.23;100.00;99528.88;5031955;28;20501;-91
2024/03/21 08:21:21;;;;;;;20.00;9.55;;;;;;;13.43;100.00;99546.22;5034113;28;20069;-92
2024/03/21 08:23:47;;;;;;;19.27;8.38;;;;;;;13.48;100.00;99541.63;5032693;28;20046;-92
2024/03/21 08:26:13;;;;;;;18.75;8.60;;;;;;;13.67;100.00;99558.03;5042083;28;20386;-93
2024/03/21 08:28:40;;;;;;;18.38;8.10;;;;;;;13.40;100.00;99491.03;5034731;28;20041;-93
2024/03/21 08:31:06;;;;;;;18.02;8.60;;;;;;;13.89;100.00;99548.50;5028802;28;20066;-93
2024/03/21 08:33:32;;;;;;;18.63;7.82;;;;;;;13.62;100.00;99469.97;5035507;28;20547;-94
2024/03/21 08:35:58;;;;;;;19.42;8.27;;;;;;;14.04;100.00;99523.13;5034307;28;20099;-94
2024/03/21 08:38:24;;;;;;;17.08;8.10;;;;;;;14.28;100.00;99547.41;5034384;28;20519;-94
2024/03/21 08:40:51;;;;;;;16.52;8.35;;;;;;;14.07;100.00;99547.09;5033089;28;20048;-93
2024/03/21 08:43:17;;;;;;;16.75;8.45;;;;;;;14.20;100.00;99541.41;5033295;28;20096;-94
2024/03/21 08:45:45;;;;;;;15.75;7.80;;;;;;;13.65;100.00;99424.44;5033229;28;20045;-93
2024/03/21 08:48:13;;;;;;;16.52;7.78;;;;;;;13.91;100.00;99441.53;5033378;28;20045;-94
2024/03/21 08:50:39;;;;;;;15.00;8.05;;;;;;;14.61;100.00;99544.66;5034921;28;20408;-92
2024/03/21 08:53:05;;;;;;;16.33;7.90;;;;;;;14.24;100.00;99477.06;5034223;28;20119;-93
2024/03/21 08:55:32;;;;;;;14.98;7.38;;;;;;;14.65;100.00;99500.81;5034018;28;20052;-93
2024/03/21 08:57:58;;;;;;;13.05;6.72;;;;;;;14.84;100.00;99515.34;5033139;28;20041;-94
2024/03/21 09:00:24;;;;;;;16.75;7.07;;;;;;;14.88;100.00;99487.56;5030918;28;20045;-96
2024/03/21 09:02:52;;;;;;;14.98;7.15;;;;;;;15.10;100.00;99521.66;5038049;28;20109;-96
2024/03/21 09:05:18;;;;;;;15.70;7.55;;;;;;;15.19;100.00;99516.84;5036199;28;20049;-96
2024/03/21 09:07:44;;;;;;;15.90;7.90;;;;;;;15.23;100.00;99527.47;5034527;28;20050;-93
2024/03/21 09:10:10;;;;;;;16.50;7.03;;;;;;;14.89;100.00;99481.25;5042867;28;20051;-95
2024/03/21 09:12:36;;;;;;;14.70;7.25;;;;;;;14.90;100.00;99450.03;5023929;28;20104;-94
2024/03/21 09:15:04;;;;;;;14.98;7.63;;;;;;;15.18;100.00;99519.59;5029811;28;20049;-91
2024/03/21 09:17:30;;;;;;;13.82;6.53;;;;;;;15.24;100.00;99499.75;5031668;28;20076;-93
2024/03/21 09:19:58;;;;;;;12.88;6.30;;;;;;;14.97;100.00;99506.00;5033035;28;20843;-93
2024/03/21 09:22:24;;;;;;;13.68;6.43;;;;;;;15.44;100.00;99525.84;5032719;28;20046;-92
2024/03/21 09:24:50;;;;;;;12.80;7.03;;;;;;;15.10;100.00;99452.00;5033486;28;20042;-93
2024/03/21 09:27:16;;;;;;;12.63;6.07;;;;;;;15.38;100.00;99487.63;5032916;28;20100;-92
2024/03/21 09:29:42;;;;;;;11.80;5.65;;;;;;;15.79;100.00;99522.84;5030744;28;20049;-91
2024/03/21 09:32:08;;;;;;;9.98;5.20;;;;;;;15.82;100.00;99495.03;5032127;28;20446;-92
2024/03/21 09:34:34;;;;;;;11.43;6.15;;;;;;;15.86;100.00;99531.53;5033205;28;20037;-93
2024/03/21 09:37:01;;;;;;;11.32;6.45;;;;;;;15.99;100.00;99519.41;5031463;28;20049;-92
2024/03/21 09:39:28;;;;;;;15.13;7.05;;;;;;;15.97;100.00;99531.13;5032908;28;20740;-93
2024/03/21 09:41:55;;;;;;;12.82;6.88;;;;;;;16.18;100.00;99532.16;5033185;28;20049;-93
2024/03/21 09:44:22;;;;;;;10.98;6.32;;;;;;;16.18;100.00;99503.50;5034444;28;20044;-93
2024/03/21 09:46:51;;;;;;;13.63;6.57;;;;;;;16.03;100.00;99522.88;5031988;28;20045;-93
2024/03/21 09:49:17;;;;;;;10.90;5.65;;;;;;;16.38;100.00;99517.97;5033302;28;20034;-93
2024/03/21 09:51:43;;;;;;;12.13;5.78;;;;;;;15.86;100.00;99391.19;5032426;28;20046;-93
2024/03/21 09:54:12;;;;;;;13.02;5.75;;;;;;;16.56;100.00;99511.84;5034942;28;20045;-93
2024/03/21 09:56:38;;;;;;;8.63;4.68;;;;;;;16.15;100.00;99502.72;5047221;28;20047;-91
2024/03/21 09:59:10;;;;;;;12.02;5.47;;;;;;;16.31;100.00;99476.16;5055683;28;20118;-91
2024/03/21 10:01:36;;;;;;;13.75;5.53;;;;;;;16.82;100.00;99505.47;5054040;28;20022;-91
2024/03/21 10:04:02;;;;;;;10.70;5.10;;;;;;;16.84;100.00;99498.22;5056122;28;20024;-91
2024/03/21 10:06:28;;;;;;;16.48;5.38;;;;;;;17.03;100.00;99494.78;5055929;28;20072;-92
2024/03/21 10:08:56;;;;;;;10.93;4.57;;;;;;;17.00;100.00;99486.84;5056416;28;20022;-90
2024/03/21 10:11:24;;;;;;;13.35;5.47;;;;;;;17.21;100.00;99495.81;5057661;28;20025;-92
2024/03/21 10:13:50;;;;;;;14.60;6.65;;;;;;;17.37;100.00;99496.91;5057458;28;20017;-92
2024/03/21 10:16:18;;;;;;;10.00;5.43;;;;;;;17.41;100.00;99493.16;5056920;28;20036;-90
2024/03/21 10:18:45;;;;;;;9.25;4.93;;;;;;;17.22;100.00;99468.00;5059229;28;20026;-91
2024/03/21 10:21:14;;;;;;;12.50;5.32;;;;;;;17.48;100.00;99488.38;5058665;28;20101;-92
2024/03/21 10:23:40;;;;;;;10.43;5.45;;;;;;;17.39;100.00;99470.84;5045782;28;20045;-93
2024/03/21 10:26:13;;;;;;;11.20;4.85;;;;;;;17.50;100.00;99466.78;5030184;28;20148;-92
2024/03/21 10:28:41;;;;;;;8.70;4.40;;;;;;;16.96;100.00;99353.59;5022316;28;20133;-93
2024/03/21 10:31:12;;;;;;;8.60;4.13;;;;;;;17.17;100.00;99398.31;5031318;28;20144;-93
2024/03/21 10:33:39;;;;;;;10.35;5.05;;;;;;;17.47;100.00;99461.56;5032504;28;20042;-92
2024/03/21 10:36:09;;;;;;;14.63;5.47;;;;;;;17.70;100.00;99447.94;5052902;28;20041;-91
2024/03/21 10:38:35;;;;;;;11.93;5.20;;;;;;;17.56;100.00;99462.00;5054392;28;20037;-90
2024/03/21 10:41:20;;;;;;;11.30;5.50;;;;;;;17.72;100.00;99447.84;5054328;28;20048;-90
2024/03/21 10:43:52;;;;;;;9.65;4.78;;;;;;;17.79;100.00;99430.50;5045652;28;20045;-93
2024/03/21 10:46:18;;;;;;;10.70;5.00;;;;;;;17.94;100.00;99439.75;5046970;28;20042;-94
2024/03/21 10:48:45;;;;;;;6.68;4.05;;;;;;;17.77;100.00;99435.09;5051988;28;20044;-93
2024/03/21 10:51:12;;;;;;;7.30;3.55;;;;;;;17.78;100.00;99380.34;5055197;28;20045;-94
2024/03/21 10:53:38;;;;;;;7.40;4.60;;;;;;;17.90;100.00;99422.84;5028286;28;20470;-94
2024/03/21 10:56:06;;;;;;;7.25;3.60;;;;;;;17.96;100.00;99429.78;5033578;28;20100;-94
2024/03/21 10:58:32;;;;;;;6.28;2.78;;;;;;;17.77;100.00;99357.09;5031895;28;20054;-94
2024/03/21 11:01:03;;;;;;;5.65;2.78;;;;;;;17.89;100.00;99367.31;5031093;28;20041;-95
2024/03/21 11:03:29;;;;;;;7.78;3.38;;;;;;;18.29;100.00;99435.38;5025765;28;20128;-93
2024/03/21 11:05:56;;;;;;;5.53;3.08;;;;;;;18.45;100.00;99420.22;5031775;28;20045;-94
2024/03/21 11:08:25;;;;;;;7.78;3.70;;;;;;;18.29;100.00;99396.81;5032897;28;20071;-93
2024/03/21 11:10:52;;;;;;;6.78;3.45;;;;;;;18.10;100.00;99357.31;5030390;28;20059;-93
2024/03/21 11:13:19;;;;;;;7.57;3.85;;;;;;;18.15;100.00;99417.19;5032657;28;20137;-93
2024/03/21 11:15:45;;;;;;;8.45;3.90;;;;;;;17.78;100.00;99396.47;5027470;28;20042;-93
2024/03/21 11:18:12;;;;;;;7.32;4.22;;;;;;;17.99;100.00;99405.41;5039966;28;20125;-91
2024/03/21 11:20:38;;;;;;;5.97;3.42;;;;;;;17.85;100.00;99352.25;5070607;28;20056;-92
2024/03/21 11:23:05;;;;;;;6.82;3.53;;;;;;;17.80;100.00;99324.63;5051566;28;20038;-92
2024/03/21 11:25:31;;;;;;;7.00;3.63;;;;;;;18.38;100.00;99399.91;5054602;28;20045;-92
2024/03/21 11:27:57;;;;;;;7.22;3.53;;;;;;;18.53;100.00;99400.97;5049847;28;20069;-92
2024/03/21 11:30:23;;;;;;;9.20;4.32;;;;;;;17.99;100.00;99287.00;5029187;28;20222;-92